Time;durP1;ratioP1;P1;durP2;ratioP2;P2;SDS_P1;SDS_P2;PMS_P1;PMS_P2;Temp;Humidity;BMP_temperature;BMP_pressure;BME280_temperature;BME280_humidity;BME280_pressure;Samples;Min_cycle;Max_cycle;Signal;HPM_P1;HPM_P2
2023/01/13 00:01:27;;;;;;;5.97;5.45;;;;;;;4.37;63.77;100309.72;4476511;31;32870;-86
2023/01/13 00:03:56;;;;;;;11.90;5.28;;;;;;;4.42;63.53;100307.91;4478790;31;33547;-86
2023/01/13 00:06:24;;;;;;;6.12;4.28;;;;;;;4.28;63.92;100308.06;4467079;31;32398;-86
2023/01/13 00:08:54;;;;;;;6.90;6.37;;;;;;;4.37;63.73;100310.56;4461432;31;32867;-86
2023/01/13 00:11:24;;;;;;;3.95;2.47;;;;;;;4.33;63.40;100306.25;4471612;31;32313;-85
2023/01/13 00:13:54;;;;;;;6.82;6.00;;;;;;;4.36;63.38;100308.81;4475442;31;33805;-84
2023/01/13 00:16:23;;;;;;;10.20;5.72;;;;;;;4.59;62.13;100310.31;4478760;31;245581;-84
2023/01/13 00:18:50;;;;;;;6.62;6.12;;;;;;;4.34;63.17;100309.72;4472650;31;33749;-84
2023/01/13 00:21:21;;;;;;;8.70;5.97;;;;;;;4.36;63.24;100310.56;4470786;31;33936;-85
2023/01/13 00:23:57;;;;;;;5.18;4.72;;;;;;;4.16;63.52;100302.94;4456934;31;33620;-85
2023/01/13 00:26:29;;;;;;;5.95;3.72;;;;;;;4.09;63.65;100304.75;4454438;31;33450;-85
2023/01/13 00:28:57;;;;;;;;;;;;;;;4.12;63.43;100306.44;4477773;31;32432;-86
2023/01/13 00:31:28;;;;;;;6.82;4.22;;;;;;;4.20;63.62;100303.78;4458017;31;33535;-86
2023/01/13 00:34:00;;;;;;;7.80;7.07;;;;;;;4.18;63.63;100297.69;4475676;31;33189;-86
2023/01/13 00:36:29;;;;;;;3.60;3.40;;;;;;;4.08;63.73;100296.91;4457421;31;31933;-85
2023/01/13 00:38:58;;;;;;;4.35;4.00;;;;;;;4.20;63.58;100301.16;4460560;31;33061;-86
2023/01/13 00:41:27;;;;;;;5.55;5.12;;;;;;;4.10;63.48;100303.84;4486722;31;34715;-86
2023/01/13 00:43:56;;;;;;;7.32;5.28;;;;;;;4.23;63.27;100298.53;4473196;31;33267;-83
2023/01/13 00:46:24;;;;;;;4.97;4.53;;;;;;;4.05;63.61;100307.41;4476537;31;32954;-83
2023/01/13 00:48:53;;;;;;;3.83;3.50;;;;;;;3.94;64.28;100304.00;4471910;31;32253;-83
2023/01/13 00:51:21;;;;;;;1.35;1.25;;;;;;;4.07;64.00;100300.41;4466568;31;33956;-82
2023/01/13 00:53:50;;;;;;;4.50;4.15;;;;;;;4.04;63.93;100305.69;4466570;31;33412;-83
2023/01/13 00:56:20;;;;;;;5.20;4.78;;;;;;;4.03;63.84;100302.16;4473536;31;32990;-83
2023/01/13 00:59:11;;;;;;;10.25;6.95;;;;;;;3.92;63.92;100301.41;4476489;31;33820;-83
2023/01/13 01:01:39;;;;;;;4.10;3.70;;;;;;;3.96;63.98;100295.28;4479790;31;33320;-83
2023/01/13 01:04:08;;;;;;;3.78;3.45;;;;;;;4.05;63.86;100295.19;4486079;31;34518;-84
2023/01/13 01:06:36;;;;;;;2.22;2.12;;;;;;;4.05;64.12;100286.50;4463609;31;32056;-83
2023/01/13 01:09:05;;;;;;;4.68;3.22;;;;;;;4.20;63.87;100295.94;4476906;31;33090;-83
2023/01/13 01:11:33;;;;;;;4.62;4.22;;;;;;;4.13;64.08;100287.28;4475733;31;34662;-83
2023/01/13 01:14:03;;;;;;;6.05;3.62;;;;;;;4.34;63.15;100275.75;4470463;31;33229;-83
2023/01/13 01:16:31;;;;;;;2.70;2.50;;;;;;;4.24;63.58;100280.19;4476174;31;33105;-84
2023/01/13 01:19:00;;;;;;;2.22;2.10;;;;;;;4.13;63.90;100282.06;4474615;31;34188;-84
2023/01/13 01:21:33;;;;;;;3.75;3.45;;;;;;;4.03;64.27;100278.66;4484578;31;32494;-84
2023/01/13 01:24:04;;;;;;;2.80;2.42;;;;;;;4.14;64.12;100281.19;4482239;31;33463;-84
2023/01/13 01:26:34;;;;;;;3.15;2.95;;;;;;;4.04;64.54;100276.94;4458433;31;31998;-84
2023/01/13 01:29:03;;;;;;;2.30;2.10;;;;;;;3.99;64.49;100276.09;4473882;31;33766;-84
2023/01/13 01:31:32;;;;;;;4.60;4.28;;;;;;;4.15;64.40;100267.22;4463554;31;33553;-84
2023/01/13 01:34:00;;;;;;;4.32;3.28;;;;;;;4.14;64.25;100270.72;4480390;31;34682;-84
2023/01/13 01:36:29;;;;;;;6.75;4.87;;;;;;;4.25;64.06;100266.25;4471910;31;34198;-84
2023/01/13 01:38:58;;;;;;;4.62;3.83;;;;;;;4.32;64.09;100265.31;4465367;31;34219;-84
2023/01/13 01:41:28;;;;;;;4.97;4.55;;;;;;;4.23;64.40;100262.78;4468576;31;33972;-83
2023/01/13 01:44:04;;;;;;;4.70;4.37;;;;;;;4.23;64.57;100259.31;4473400;31;32640;-83
2023/01/13 01:46:39;;;;;;;4.65;4.28;;;;;;;4.23;64.75;100261.94;4482665;31;33314;-83
2023/01/13 01:49:30;;;;;;;3.45;3.25;;;;;;;4.19;64.57;100260.22;4475302;31;34764;-84
2023/01/13 01:52:02;;;;;;;6.15;5.60;;;;;;;4.26;64.49;100249.66;4483508;31;33686;-85
2023/01/13 01:54:55;;;;;;;3.57;3.20;;;;;;;4.30;64.41;100260.97;4473799;31;33817;-84
2023/01/13 01:57:52;;;;;;;4.32;3.10;;;;;;;4.40;64.14;100259.97;4458012;31;32110;-85
2023/01/13 02:00:21;;;;;;;1.37;1.37;;;;;;;4.40;64.05;100251.28;4452182;31;30534;-85
2023/01/13 02:02:50;;;;;;;1.33;1.33;;;;;;;4.37;64.17;100255.66;4465111;31;34889;-85
2023/01/13 02:05:18;;;;;;;4.05;3.03;;;;;;;4.35;64.29;100244.34;4485553;31;33223;-85
2023/01/13 02:07:47;;;;;;;3.53;3.25;;;;;;;4.47;63.62;100242.50;4466310;31;32372;-85
2023/01/13 02:10:19;;;;;;;1.00;0.88;;;;;;;4.49;64.00;100235.47;4464980;31;33655;-84
2023/01/13 02:12:49;;;;;;;4.20;3.75;;;;;;;4.54;63.63;100238.91;4470125;31;34217;-84
2023/01/13 02:15:29;;;;;;;3.70;3.35;;;;;;;4.27;64.75;100240.97;4485111;31;33258;-83
2023/01/13 02:18:34;;;;;;;1.25;1.12;;;;;;;4.29;65.03;100233.97;4478086;31;33327;-83
2023/01/13 02:21:06;;;;;;;5.43;4.20;;;;;;;4.42;64.30;100239.06;4469990;31;33850;-83
2023/01/13 02:27:05;;;;;;;2.60;2.50;;;;;;;4.41;64.67;100234.69;4484568;31;33708;-83
2023/01/13 02:32:50;;;;;;;2.87;2.67;;;;;;;4.38;64.70;100230.37;4470448;31;32711;-84
2023/01/13 02:35:31;;;;;;;1.48;1.42;;;;;;;4.34;64.92;100229.53;4466508;31;33513;-84
2023/01/13 02:38:00;;;;;;;1.83;1.73;;;;;;;4.48;64.45;100228.53;4487127;31;33038;-84
2023/01/13 02:40:39;;;;;;;4.40;2.80;;;;;;;4.62;64.11;100224.00;4462595;31;31923;-85
2023/01/13 02:46:29;;;;;;;1.62;1.52;;;;;;;4.52;64.58;100225.00;4492960;31;33901;-84
2023/01/13 02:49:03;;;;;;;0.90;0.90;;;;;;;4.58;64.61;100215.31;4486630;31;32371;-84
2023/01/13 02:51:31;;;;;;;1.77;1.67;;;;;;;4.63;64.60;100217.88;4484278;31;33304;-87
2023/01/13 02:54:07;;;;;;;1.45;1.37;;;;;;;4.78;64.03;100220.28;4461739;31;32585;-86
2023/01/13 02:56:39;;;;;;;2.00;1.95;;;;;;;4.68;64.44;100209.97;4456664;31;32898;-87
2023/01/13 02:59:08;;;;;;;3.85;3.53;;;;;;;4.65;64.65;100210.84;4490942;31;33859;-85
2023/01/13 03:01:36;;;;;;;3.40;2.83;;;;;;;4.83;64.02;100208.00;4486332;31;33385;-83
2023/01/13 03:04:13;;;;;;;2.28;2.08;;;;;;;4.91;63.62;100207.03;4472391;31;34709;-83
2023/01/13 03:06:57;;;;;;;0.82;0.82;;;;;;;4.64;64.38;100206.50;4477073;31;33797;-83
2023/01/13 03:09:36;;;;;;;3.08;2.87;;;;;;;4.74;64.35;100199.41;4474832;31;32256;-83
2023/01/13 03:12:45;;;;;;;0.70;0.70;;;;;;;4.67;64.65;100203.88;4488076;31;33332;-82
2023/01/13 03:15:24;;;;;;;0.60;0.52;;;;;;;4.81;64.22;100196.69;4473115;31;33514;-83
2023/01/13 03:18:02;;;;;;;1.65;1.55;;;;;;;4.83;64.15;100192.28;4460372;31;32977;-84
2023/01/13 03:20:33;;;;;;;1.92;1.67;;;;;;;4.75;64.58;100193.31;4471654;31;33307;-83
2023/01/13 03:23:20;;;;;;;4.78;2.37;;;;;;;4.75;64.42;100191.56;4469879;31;33122;-83
2023/01/13 03:26:06;;;;;;;2.35;0.77;;;;;;;4.69;64.38;100190.75;4469999;31;33791;-83
2023/01/13 03:28:40;;;;;;;1.70;1.60;;;;;;;4.58;65.23;100194.38;4491684;31;33646;-83
2023/01/13 03:31:14;;;;;;;2.05;1.87;;;;;;;5.00;63.75;100201.66;4486999;31;33570;-83
2023/01/13 03:33:48;;;;;;;0.77;0.77;;;;;;;5.01;63.49;100185.94;4476661;31;34692;-83
2023/01/13 03:36:17;;;;;;;2.37;2.20;;;;;;;4.65;64.80;100189.06;4480032;31;33891;-83
2023/01/13 03:38:50;;;;;;;1.62;1.52;;;;;;;4.94;63.92;100180.81;4471510;31;32536;-83
2023/01/13 03:41:26;;;;;;;2.92;2.72;;;;;;;4.78;64.37;100178.41;4454446;31;32636;-83
2023/01/13 03:44:23;;;;;;;3.03;2.83;;;;;;;4.76;64.70;100176.72;4482285;31;33424;-83
2023/01/13 03:46:53;;;;;;;1.77;1.67;;;;;;;4.57;65.25;100176.97;4490675;31;33508;-83
2023/01/13 03:49:45;;;;;;;2.37;2.17;;;;;;;4.64;65.43;100185.59;4492170;31;32715;-83
2023/01/13 03:52:19;;;;;;;1.00;0.98;;;;;;;4.59;65.72;100180.41;4469790;31;34088;-83
2023/01/13 03:54:51;;;;;;;1.92;1.70;;;;;;;4.58;65.46;100172.59;4474203;31;32292;-83
2023/01/13 03:57:23;;;;;;;2.40;1.87;;;;;;;4.66;65.62;100176.00;4468681;31;32603;-83
2023/01/13 03:59:55;;;;;;;0.85;0.77;;;;;;;4.73;65.70;100188.09;4469867;31;33709;-83
2023/01/13 04:02:37;;;;;;;0.88;0.88;;;;;;;5.11;64.10;100178.81;4471897;31;32926;-84
2023/01/13 04:05:08;;;;;;;1.77;1.67;;;;;;;4.95;64.52;100174.72;4483757;31;32762;-84
2023/01/13 04:07:49;;;;;;;22.90;5.97;;;;;;;5.03;64.55;100176.34;4453495;31;32090;-84
2023/01/13 04:10:22;;;;;;;3.33;2.70;;;;;;;5.29;63.59;100175.91;4484605;31;33276;-84
2023/01/13 04:13:00;;;;;;;4.37;2.97;;;;;;;5.01;64.31;100180.72;4488608;31;33774;-84
2023/01/13 04:15:35;;;;;;;1.60;1.52;;;;;;;4.78;65.32;100186.25;4483268;31;33004;-84
2023/01/13 04:18:14;;;;;;;1.73;1.60;;;;;;;4.86;65.17;100186.16;4492338;31;33796;-84
2023/01/13 04:20:45;;;;;;;1.50;1.45;;;;;;;4.82;65.12;100185.34;4475800;31;34835;-83
2023/01/13 04:23:16;;;;;;;1.65;1.55;;;;;;;4.89;65.01;100188.75;4484826;31;32738;-83
2023/01/13 04:25:44;;;;;;;0.55;0.55;;;;;;;4.85;65.39;100187.94;4482619;31;34265;-83
2023/01/13 04:28:13;;;;;;;6.75;2.90;;;;;;;4.84;65.72;100180.97;4478407;31;32414;-84
2023/01/13 04:30:41;;;;;;;5.50;2.30;;;;;;;4.81;65.37;100185.38;4471679;31;32952;-84
2023/01/13 04:33:11;;;;;;;2.90;2.70;;;;;;;4.92;65.44;100186.06;4473102;31;33310;-84
2023/01/13 04:35:39;;;;;;;0.93;0.93;;;;;;;5.16;64.65;100191.81;4483332;31;33359;-83
2023/01/13 04:38:09;;;;;;;2.05;1.87;;;;;;;5.30;64.07;100190.72;4485938;31;33410;-83
2023/01/13 04:40:39;;;;;;;2.25;2.15;;;;;;;5.17;64.00;100191.78;4486584;31;33976;-83
2023/01/13 04:43:07;;;;;;;2.05;1.42;;;;;;;5.12;64.52;100196.25;4472704;31;32785;-84
2023/01/13 04:45:35;;;;;;;1.45;1.23;;;;;;;4.91;65.38;100189.59;4477934;31;33149;-84
2023/01/13 04:48:05;;;;;;;1.23;0.98;;;;;;;5.03;65.04;100189.41;4478203;31;32255;-84
2023/01/13 04:50:35;;;;;;;1.17;1.17;;;;;;;4.91;65.37;100191.34;4477669;31;32777;-83
2023/01/13 04:53:06;;;;;;;1.62;1.52;;;;;;;5.00;65.07;100185.97;4472402;31;34972;-84
2023/01/13 04:55:35;;;;;;;1.40;1.40;;;;;;;5.05;64.93;100189.37;4462586;31;32392;-83
2023/01/13 04:58:04;;;;;;;0.77;0.77;;;;;;;5.09;64.87;100185.84;4471930;31;34520;-83
2023/01/13 05:00:33;;;;;;;1.75;1.65;;;;;;;4.93;65.13;100192.16;4483850;31;33971;-83
2023/01/13 05:03:01;;;;;;;2.28;1.02;;;;;;;5.05;64.57;100189.37;4465427;31;33818;-82
2023/01/13 05:05:30;;;;;;;2.65;2.42;;;;;;;4.95;65.11;100193.03;4475716;31;32083;-83
2023/01/13 05:07:59;;;;;;;2.05;1.95;;;;;;;5.31;63.80;100188.97;4470243;31;32246;-83
2023/01/13 05:10:27;;;;;;;1.23;1.23;;;;;;;5.08;64.08;100195.44;4473148;31;33898;-83
2023/01/13 05:18:33;;;;;;;2.90;1.73;;;;;;;4.99;65.11;100199.94;4485181;31;35840;-83
2023/01/13 05:25:20;;;;;;;1.05;1.05;;;;;;;5.27;64.19;100203.00;4486678;31;33732;-83
2023/01/13 05:26:43;;;;;;;3.78;1.75;;;;;;;5.19;63.76;100213.59;4488412;31;34556;-83
2023/01/13 05:29:11;;;;;;;2.03;1.92;;;;;;;5.06;64.64;100222.50;4471075;31;32698;-83
2023/01/13 05:31:39;;;;;;;5.47;2.50;;;;;;;5.02;64.92;100220.81;4472796;31;33625;-83
2023/01/13 05:34:07;;;;;;;1.70;1.60;;;;;;;5.06;64.90;100218.12;4479805;31;32797;-83
2023/01/13 05:36:35;;;;;;;0.93;0.93;;;;;;;4.92;65.47;100220.09;4468748;31;32948;-83
2023/01/13 05:39:04;;;;;;;0.88;0.88;;;;;;;5.04;65.27;100216.44;4484504;31;32506;-83
2023/01/13 05:44:20;;;;;;;5.75;2.42;;;;;;;5.18;65.00;100216.25;4484267;31;33456;-83
2023/01/13 05:46:50;;;;;;;0.93;0.93;;;;;;;5.06;65.62;100217.28;4456040;31;32887;-83
2023/01/13 05:49:19;;;;;;;3.62;2.70;;;;;;;5.17;65.39;100209.25;4480271;31;34368;-84
2023/01/13 05:51:47;;;;;;;1.40;1.25;;;;;;;5.21;65.17;100206.56;4466247;31;33906;-84
2023/01/13 05:54:15;;;;;;;4.87;3.20;;;;;;;5.29;64.74;100212.56;4452557;31;33628;-83
2023/01/13 05:56:42;;;;;;;1.05;1.02;;;;;;;5.24;64.92;100209.16;4480458;31;33520;-83
2023/01/13 05:59:14;;;;;;;2.25;1.90;;;;;;;5.23;65.02;100214.44;4467463;31;34445;-84
2023/01/13 06:01:44;;;;;;;0.60;0.60;;;;;;;5.29;64.96;100204.72;4470036;31;33121;-84
2023/01/13 06:04:21;;;;;;;1.55;1.45;;;;;;;5.53;63.77;100206.06;4468275;31;33665;-84
2023/01/13 06:06:53;;;;;;;1.42;1.37;;;;;;;5.39;63.95;100201.06;4463513;31;34430;-83
2023/01/13 06:09:21;;;;;;;0.80;0.80;;;;;;;5.25;64.66;100205.63;4465673;31;33717;-83
2023/01/13 06:11:50;;;;;;;1.60;1.50;;;;;;;5.23;64.73;100207.44;4460543;31;33948;-82
2023/01/13 06:14:23;;;;;;;1.05;1.02;;;;;;;5.24;64.85;100211.78;4474533;31;33455;-82
2023/01/13 06:16:54;;;;;;;0.47;0.47;;;;;;;5.17;64.87;100212.75;4467842;31;31083;-82
2023/01/13 06:19:26;;;;;;;1.75;1.65;;;;;;;5.24;64.69;100205.69;4466357;31;34691;-82
2023/01/13 06:21:56;;;;;;;1.00;1.00;;;;;;;5.07;65.15;100213.78;4460705;31;34796;-82
2023/01/13 06:24:27;;;;;;;0.80;0.80;;;;;;;5.08;65.15;100216.37;4471887;31;33964;-83
2023/01/13 06:26:59;;;;;;;1.77;1.67;;;;;;;5.10;65.14;100211.97;4474476;31;33114;-82
2023/01/13 06:29:28;;;;;;;0.60;0.60;;;;;;;5.17;65.01;100215.34;4467901;31;34215;-82
2023/01/13 06:32:04;;;;;;;1.65;1.55;;;;;;;5.13;64.98;100208.47;4470043;31;33777;-82
2023/01/13 06:34:34;;;;;;;2.03;1.90;;;;;;;5.21;64.81;100208.31;4465815;31;32379;-83
2023/01/13 06:37:02;;;;;;;1.67;1.52;;;;;;;4.99;65.23;100210.41;4466846;31;32810;-84
2023/01/13 06:39:31;;;;;;;2.92;1.67;;;;;;;5.12;64.98;100220.66;4462963;31;33763;-85
2023/01/13 06:44:50;;;;;;;1.30;1.27;;;;;;;5.13;65.01;100224.16;4484972;31;33998;-84
2023/01/13 06:47:18;;;;;;;1.62;1.52;;;;;;;5.12;64.81;100223.28;4479210;31;34349;-84
2023/01/13 06:49:48;;;;;;;0.80;0.80;;;;;;;5.00;65.44;100223.47;4470574;31;34281;-85
2023/01/13 06:52:18;;;;;;;1.55;0.75;;;;;;;5.13;65.22;100235.50;4472041;31;33494;-84
2023/01/13 06:54:47;;;;;;;4.87;1.67;;;;;;;4.85;66.04;100232.41;4486057;31;34453;-85
2023/01/13 06:59:52;;;;;;;0.20;0.20;;;;;;;5.29;64.68;100228.28;4484349;31;34607;-84
2023/01/13 07:02:20;;;;;;;0.47;0.47;;;;;;;5.20;65.35;100236.25;4473148;31;34665;-84
2023/01/13 07:04:49;;;;;;;1.45;1.35;;;;;;;5.52;64.78;100242.78;4482521;31;33942;-84
2023/01/13 07:07:21;;;;;;;0.75;0.57;;;;;;;5.35;66.06;100236.03;4470453;31;32680;-85
2023/01/13 07:09:54;;;;;;;1.08;0.95;;;;;;;5.17;67.08;100248.53;4493433;31;34488;-84
2023/01/13 07:12:25;;;;;;;0.95;0.95;;;;;;;5.51;65.93;100241.06;4475834;31;33990;-84
2023/01/13 07:17:40;;;;;;;0.22;0.22;;;;;;;5.59;66.42;100239.16;4484718;31;33061;-86
2023/01/13 07:20:08;;;;;;;0.98;0.98;;;;;;;5.58;66.47;100232.19;4468004;32;33497;-87
2023/01/13 07:22:37;;;;;;;0.90;0.90;;;;;;;5.67;66.30;100231.16;4460944;31;32973;-88
2023/01/13 07:25:06;;;;;;;1.17;1.17;;;;;;;5.60;66.63;100222.53;4463900;31;33116;-87
2023/01/13 07:27:34;;;;;;;1.62;1.20;;;;;;;5.78;66.41;100224.84;4467578;31;33625;-84
2023/01/13 07:30:03;;;;;;;3.75;3.28;;;;;;;5.82;66.25;100220.41;4482347;31;34160;-85
2023/01/13 07:32:32;;;;;;;2.12;1.67;;;;;;;5.74;66.52;100225.78;4471235;31;32911;-85
2023/01/13 07:35:04;;;;;;;0.57;0.57;;;;;;;6.04;65.42;100221.81;4464507;32;34085;-85
2023/01/13 07:37:38;;;;;;;3.53;1.27;;;;;;;6.23;65.06;100218.84;4469389;31;33518;-85
2023/01/13 07:40:11;;;;;;;1.25;1.23;;;;;;;6.21;65.22;100228.47;4463567;32;34612;-84
2023/01/13 07:45:29;;;;;;;0.22;0.22;;;;;;;5.95;66.37;100227.22;4469587;32;33906;-85
2023/01/13 07:48:06;;;;;;;1.45;0.62;;;;;;;5.89;66.73;100233.41;4454426;32;31769;-85
2023/01/13 07:50:34;;;;;;;0.98;0.98;;;;;;;5.96;66.87;100228.06;4475020;32;34286;-85
2023/01/13 07:53:03;;;;;;;4.55;1.77;;;;;;;5.99;66.96;100231.50;4439673;32;33830;-85
2023/01/13 07:55:31;;;;;;;1.27;1.25;;;;;;;6.02;66.99;100233.19;4464740;32;33603;-86
2023/01/13 07:57:59;;;;;;;1.55;1.45;;;;;;;6.16;66.81;100236.44;4466842;32;32678;-85
2023/01/13 08:00:37;;;;;;;1.48;1.40;;;;;;;6.18;66.70;100250.41;4468978;32;33726;-85
2023/01/13 08:03:10;;;;;;;1.35;1.27;;;;;;;6.27;66.85;100255.47;4462082;32;33261;-85
2023/01/13 08:05:38;;;;;;;2.00;1.87;;;;;;;6.62;65.49;100246.03;4455764;32;32065;-85
2023/01/13 08:08:13;;;;;;;1.25;1.08;;;;;;;6.47;65.81;100252.47;4466439;32;32754;-85
2023/01/13 08:10:44;;;;;;;1.48;1.37;;;;;;;6.23;66.46;100253.78;4440446;32;33670;-85
2023/01/13 08:13:19;;;;;;;2.12;1.75;;;;;;;6.25;66.52;100257.25;4448796;32;30970;-85
2023/01/13 08:15:50;;;;;;;0.43;0.43;;;;;;;6.18;66.67;100265.25;4451375;32;33936;-85
2023/01/13 08:18:21;;;;;;;2.65;0.98;;;;;;;5.99;67.23;100268.22;4442259;32;31804;-86
2023/01/13 08:20:54;;;;;;;0.88;0.88;;;;;;;6.28;66.92;100261.56;4464307;32;33053;-85
2023/01/13 08:23:23;;;;;;;1.30;1.20;;;;;;;6.50;66.30;100262.00;4456476;32;32943;-85
2023/01/13 08:25:54;;;;;;;3.60;1.15;;;;;;;6.35;66.70;100258.78;4473924;32;34676;-85
2023/01/13 08:28:23;;;;;;;1.52;1.50;;;;;;;6.30;66.76;100255.38;4443100;32;33617;-89
2023/01/13 08:30:52;;;;;;;1.20;1.20;;;;;;;6.09;67.50;100266.28;4451934;32;33973;-85
2023/01/13 08:33:20;;;;;;;1.75;1.65;;;;;;;6.40;66.22;100271.81;4451125;32;32670;-88
2023/01/13 08:35:51;;;;;;;1.45;0.98;;;;;;;6.46;66.05;100268.19;4434679;32;34257;-89
2023/01/13 08:38:20;;;;;;;1.35;1.25;;;;;;;6.45;66.41;100271.72;4435359;32;32596;-86
2023/01/13 08:40:49;;;;;;;1.20;1.20;;;;;;;6.28;66.42;100272.94;4449936;32;33719;-86
2023/01/13 08:43:18;;;;;;;3.53;1.35;;;;;;;6.18;66.50;100271.37;4434839;32;33254;-86
2023/01/13 08:45:55;;;;;;;0.20;0.20;;;;;;;6.08;66.81;100280.28;4445318;32;33306;-86
2023/01/13 08:48:24;;;;;;;1.85;1.75;;;;;;;6.08;67.09;100282.91;4432919;32;31967;-86
2023/01/13 08:51:01;;;;;;;1.42;1.33;;;;;;;6.15;67.00;100288.00;4449804;32;33041;-86
2023/01/13 08:53:29;;;;;;;1.25;1.25;;;;;;;6.27;66.81;100292.19;4451762;32;34665;-87
2023/01/13 08:56:01;;;;;;;1.25;1.23;;;;;;;6.26;66.41;100289.56;4442063;32;32439;-87
2023/01/13 08:58:34;;;;;;;1.33;1.17;;;;;;;6.03;66.98;100297.84;4436289;32;33421;-86
2023/01/13 09:01:04;;;;;;;2.37;2.05;;;;;;;6.13;66.74;100299.44;4439697;32;33792;-86
2023/01/13 09:03:32;;;;;;;2.17;1.48;;;;;;;5.97;66.95;100292.72;4433688;32;34292;-87
2023/01/13 09:06:02;;;;;;;1.87;1.77;;;;;;;6.16;66.34;100297.59;4432867;32;32663;-86
2023/01/13 09:08:30;;;;;;;0.73;0.73;;;;;;;6.11;66.57;100298.56;4443999;32;31859;-87
2023/01/13 09:10:58;;;;;;;2.03;1.70;;;;;;;6.03;67.15;100297.84;4450829;32;33627;-87
2023/01/13 09:13:26;;;;;;;1.25;0.75;;;;;;;6.22;66.80;100283.53;4448804;32;32598;-87
2023/01/13 09:15:55;;;;;;;1.23;1.05;;;;;;;6.26;66.54;100293.03;4462236;32;34913;-86
2023/01/13 09:18:30;;;;;;;0.32;0.32;;;;;;;6.35;66.26;100285.00;4464214;32;34309;-87
2023/01/13 09:20:59;;;;;;;1.05;1.05;;;;;;;6.35;66.26;100279.78;4466419;32;33017;-87
2023/01/13 09:23:30;;;;;;;2.62;1.67;;;;;;;5.97;67.01;100287.47;4436653;32;34748;-87
2023/01/13 09:26:01;;;;;;;1.35;1.30;;;;;;;6.00;67.06;100283.03;4441056;32;32033;-87
2023/01/13 09:28:31;;;;;;;2.37;1.83;;;;;;;6.12;66.95;100292.44;4441157;32;34105;-87
2023/01/13 09:31:01;;;;;;;0.77;0.77;;;;;;;6.16;66.76;100291.50;4454056;32;33560;-87
2023/01/13 09:36:17;;;;;;;2.95;1.08;;;;;;;6.21;67.36;100278.28;4469971;32;33388;-87
2023/01/13 09:38:52;;;;;;;3.10;2.05;;;;;;;5.76;67.77;100283.44;4437556;32;32969;-87
2023/01/13 09:44:24;;;;;;;0.70;0.70;;;;;;;5.87;67.93;100276.25;4470848;32;33591;-87
2023/01/13 09:47:02;;;;;;;0.73;0.73;;;;;;;5.88;67.95;100267.47;4449545;32;33221;-86
2023/01/13 09:49:39;;;;;;;3.42;2.40;;;;;;;6.03;67.36;100272.50;4458537;31;34096;-87
2023/01/13 09:52:14;;;;;;;2.55;1.52;;;;;;;6.26;66.75;100258.97;4455437;31;34576;-87
2023/01/13 09:54:49;;;;;;;1.40;1.30;;;;;;;6.16;67.49;100255.66;4451166;32;34096;-87
2023/01/13 09:57:19;;;;;;;1.42;1.33;;;;;;;6.36;66.95;100257.03;4439630;32;32539;-87
2023/01/13 09:59:50;;;;;;;2.42;2.08;;;;;;;6.61;66.30;100257.44;4452470;31;33126;-86
2023/01/13 10:02:24;;;;;;;1.50;1.40;;;;;;;6.60;66.36;100263.59;4452944;32;33229;-87
2023/01/13 10:05:15;;;;;;;3.08;2.87;;;;;;;6.63;66.22;100264.34;4478482;32;33826;-87
2023/01/13 10:07:52;;;;;;;5.72;1.77;;;;;;;6.90;65.69;100262.94;4464975;32;33720;-86
2023/01/13 10:10:43;;;;;;;2.37;2.28;;;;;;;6.87;65.00;100262.12;4465112;32;33266;-86
2023/01/13 10:13:21;;;;;;;0.30;0.30;;;;;;;6.68;65.47;100257.25;4463664;32;32210;-87
2023/01/13 10:16:21;;;;;;;3.28;1.83;;;;;;;6.76;65.50;100261.50;4442333;32;32088;-86
2023/01/13 10:19:02;;;;;;;3.95;2.20;;;;;;;6.38;66.96;100268.38;4452547;32;33265;-86
2023/01/13 10:21:57;;;;;;;2.10;2.00;;;;;;;6.73;65.86;100265.03;4465965;32;32967;-87
2023/01/13 10:24:58;;;;;;;1.52;1.50;;;;;;;6.25;67.28;100265.09;4464787;32;32198;-86
2023/01/13 10:27:36;;;;;;;0.55;0.55;;;;;;;6.15;67.63;100263.56;4422485;32;33155;-86
2023/01/13 10:30:20;;;;;;;0.73;0.73;;;;;;;5.99;68.48;100280.47;4439824;32;33122;-86
2023/01/13 10:32:55;;;;;;;3.40;1.67;;;;;;;6.32;67.48;100268.50;4479480;32;33777;-87
2023/01/13 10:35:58;;;;;;;2.15;2.05;;;;;;;6.29;68.36;100260.69;4451138;32;34294;-88
2023/01/13 10:38:30;;;;;;;2.62;2.42;;;;;;;6.20;68.47;100264.31;4441548;32;33516;-88
2023/01/13 10:41:01;;;;;;;2.45;1.12;;;;;;;6.31;68.28;100257.13;4443021;32;35013;-88
2023/01/13 10:43:31;;;;;;;1.98;1.65;;;;;;;6.85;66.46;100248.19;4422374;32;31822;-88
2023/01/13 10:46:07;;;;;;;1.08;0.98;;;;;;;6.74;66.24;100239.66;4431935;32;33687;-88
2023/01/13 10:48:40;;;;;;;1.45;1.35;;;;;;;6.59;67.15;100238.22;4432597;32;32534;-89
2023/01/13 10:51:36;;;;;;;0.95;0.95;;;;;;;6.41;67.13;100237.72;4439775;32;33566;-89
2023/01/13 10:54:14;;;;;;;1.30;1.30;;;;;;;6.33;67.96;100233.50;4434046;32;32565;-89
2023/01/13 10:56:44;;;;;;;2.22;2.12;;;;;;;6.17;68.11;100225.03;4437436;32;34373;-88
2023/01/13 10:59:14;;;;;;;2.17;1.98;;;;;;;6.66;66.43;100210.97;4446720;32;33953;-88
2023/01/13 11:01:57;;;;;;;1.77;1.67;;;;;;;5.73;68.79;100226.69;4432839;32;33394;-88
2023/01/13 11:04:41;;;;;;;2.03;1.77;;;;;;;5.82;69.12;100216.03;4439953;32;32377;-88
2023/01/13 11:07:32;;;;;;;1.37;1.33;;;;;;;5.68;69.59;100215.41;4424243;32;33124;-88
2023/01/13 11:10:03;;;;;;;0.75;0.75;;;;;;;6.05;68.72;100201.69;4447796;32;33882;-88
2023/01/13 11:12:34;;;;;;;1.12;1.10;;;;;;;5.73;69.19;100208.34;4440765;32;34184;-88
2023/01/13 11:15:13;;;;;;;5.18;1.65;;;;;;;5.80;69.91;100196.87;4429907;32;32716;-88
2023/01/13 11:17:52;;;;;;;0.62;0.62;;;;;;;5.64;70.55;100200.63;4442313;32;32816;-88
2023/01/13 11:20:31;;;;;;;1.83;1.58;;;;;;;6.23;69.06;100195.25;4442943;32;34353;-88
2023/01/13 11:23:10;;;;;;;2.70;1.95;;;;;;;6.55;67.78;100184.06;4441906;32;33926;-88
2023/01/13 11:25:44;;;;;;;1.83;1.75;;;;;;;6.58;67.45;100186.63;4431254;32;33257;-88
2023/01/13 11:28:37;;;;;;;0.62;0.62;;;;;;;6.34;68.07;100180.16;4428584;32;32853;-88
2023/01/13 11:31:34;;;;;;;2.00;1.85;;;;;;;6.24;68.60;100168.97;4429485;32;33847;-88
2023/01/13 11:34:27;;;;;;;1.95;1.85;;;;;;;6.51;67.14;100175.44;4442042;32;33713;-88
2023/01/13 11:36:58;;;;;;;2.85;2.12;;;;;;;6.20;68.18;100177.78;4445619;32;33504;-88
2023/01/13 11:42:39;;;;;;;0.17;0.17;;;;;;;6.24;68.55;100179.47;4468972;32;34184;-88
2023/01/13 11:45:33;;;;;;;2.20;1.80;;;;;;;6.29;68.35;100188.09;4439884;32;30791;-88
2023/01/13 11:48:06;;;;;;;1.98;1.87;;;;;;;6.25;68.48;100175.94;4441879;32;32270;-87
2023/01/13 11:51:16;;;;;;;1.55;1.55;;;;;;;6.49;67.60;100173.72;4443207;32;32586;-88
2023/01/13 11:54:05;;;;;;;1.42;1.33;;;;;;;6.08;69.06;100159.69;4444137;32;33324;-88
2023/01/13 11:56:42;;;;;;;2.87;2.67;;;;;;;6.33;68.86;100149.56;4451703;32;34731;-88
2023/01/13 11:59:49;;;;;;;3.75;3.42;;;;;;;6.16;69.34;100152.53;4453164;32;32857;-88
2023/01/13 12:02:21;;;;;;;2.28;1.77;;;;;;;6.36;68.67;100150.38;4455078;32;33204;-88
2023/01/13 12:05:03;;;;;;;0.20;0.20;;;;;;;6.08;68.78;100141.34;4452844;32;34804;-87
2023/01/13 12:07:45;;;;;;;0.90;0.90;;;;;;;6.24;68.32;100132.25;4437333;32;33197;-88
2023/01/13 12:10:28;;;;;;;3.10;2.43;;;;;;;6.06;69.60;100125.63;4449690;32;34095;-88
2023/01/13 12:13:43;;;;;;;2.92;2.72;;;;;;;6.12;69.47;100124.63;4444785;32;32742;-88
2023/01/13 12:16:26;;;;;;;1.98;1.80;;;;;;;6.29;69.12;100117.28;4422537;32;33309;-87
2023/01/13 12:19:23;;;;;;;1.02;1.02;;;;;;;5.93;70.07;100112.78;4440683;32;33751;-87
2023/01/13 12:22:09;;;;;;;3.22;2.62;;;;;;;6.08;69.71;100112.50;4456491;32;32739;-87
2023/01/13 12:24:50;;;;;;;2.83;2.47;;;;;;;6.17;69.41;100101.81;4448372;32;32579;-87
2023/01/13 12:27:48;;;;;;;1.33;1.30;;;;;;;6.49;68.71;100087.16;4465870;32;34546;-88
2023/01/13 12:30:22;;;;;;;2.00;1.90;;;;;;;6.29;69.34;100088.44;4436401;32;34274;-88
2023/01/13 12:32:55;;;;;;;1.73;1.62;;;;;;;6.21;69.55;100102.63;4449683;32;33436;-87
2023/01/13 12:35:41;;;;;;;;;;;;;;;6.40;68.57;100107.44;4436935;32;32540;-87
2023/01/13 12:38:27;;;;;;;2.67;2.37;;;;;;;6.90;67.17;100104.56;4424871;32;35450;-87
2023/01/13 12:41:26;;;;;;;1.40;1.30;;;;;;;6.24;68.81;100102.56;4433795;32;34564;-88
2023/01/13 12:46:57;;;;;;;1.58;1.50;;;;;;;6.71;67.76;100093.63;4441035;32;32594;-88
2023/01/13 12:49:28;;;;;;;7.00;5.12;;;;;;;6.40;69.04;100099.56;4428298;32;33386;-88
2023/01/13 12:52:06;;;;;;;2.87;2.67;;;;;;;6.38;69.32;100097.87;4446880;32;33460;-88